Time;durP1;ratioP1;P1;durP2;ratioP2;P2;SDS_P1;SDS_P2;PMS_P1;PMS_P2;Temp;Humidity;BMP_temperature;BMP_pressure;BME280_temperature;BME280_humidity;BME280_pressure;Samples;Min_cycle;Max_cycle;Signal;HPM_P1;HPM_P2
2023/04/20 00:02:01;;;;;;;23.23;5.53;;;6.40;72.30;;;;;;4955082;29;20500;-77
2023/04/20 00:04:30;;;;;;;18.17;5.60;;;6.50;71.90;;;;;;4936956;29;20575;-77
2023/04/20 00:06:57;;;;;;;21.45;5.88;;;6.50;72.40;;;;;;4953368;28;20475;-78
2023/04/20 00:09:26;;;;;;;16.10;5.07;;;6.60;72.60;;;;;;4953834;29;20055;-77
2023/04/20 00:11:54;;;;;;;11.82;5.32;;;6.60;71.90;;;;;;4936985;29;20047;-77
2023/04/20 00:14:23;;;;;;;21.67;5.53;;;6.70;71.30;;;;;;4936417;29;20611;-77
2023/04/20 00:16:50;;;;;;;15.25;4.85;;;6.70;71.30;;;;;;4955507;29;20092;-77
2023/04/20 00:19:19;;;;;;;20.60;5.60;;;6.80;71.80;;;;;;4954040;29;20143;-78
2023/04/20 00:21:47;;;;;;;15.50;5.47;;;6.80;71.40;;;;;;4953733;29;20047;-77
2023/04/20 00:24:15;;;;;;;18.45;5.10;;;6.70;70.70;;;;;;4935043;29;20051;-77
2023/04/20 00:26:42;;;;;;;28.88;5.65;;;6.80;70.50;;;;;;4937184;29;20058;-78
2023/04/20 00:29:10;;;;;;;20.52;4.55;;;6.70;70.50;;;;;;4953939;29;20074;-78
2023/04/20 00:31:39;;;;;;;22.65;5.28;;;6.70;71.30;;;;;;4936480;29;20420;-78
2023/04/20 00:34:07;;;;;;;15.88;4.95;;;6.60;71.40;;;;;;4936503;29;20169;-78
2023/04/20 00:36:35;;;;;;;12.00;4.75;;;6.60;71.50;;;;;;4937216;29;20503;-78
2023/04/20 00:39:03;;;;;;;10.98;4.97;;;6.50;71.70;;;;;;4935428;29;20113;-78
2023/04/20 00:41:31;;;;;;;10.93;4.75;;;6.50;72.30;;;;;;4951106;29;21272;-79
2023/04/20 00:44:00;;;;;;;19.98;5.45;;;6.50;73.60;;;;;;4935917;29;20536;-78
2023/04/20 00:46:28;;;;;;;11.10;5.47;;;6.40;72.90;;;;;;4937285;29;20093;-78
2023/04/20 00:48:57;;;;;;;17.38;4.88;;;6.40;73.70;;;;;;4919694;29;20050;-77
2023/04/20 00:51:24;;;;;;;22.77;5.60;;;6.40;73.80;;;;;;4950800;29;20047;-78
2023/04/20 00:53:52;;;;;;;26.95;5.88;;;6.40;73.80;;;;;;4953151;29;20059;-78
2023/04/20 00:56:19;;;;;;;19.33;6.07;;;6.40;74.10;;;;;;4953605;29;20051;-77
2023/04/20 00:58:47;;;;;;;17.95;5.28;;;6.40;75.60;;;;;;4954624;28;20093;-77
2023/04/20 01:01:16;;;;;;;22.75;5.15;;;6.50;76.40;;;;;;4935000;29;20073;-77
2023/04/20 01:03:44;;;;;;;21.77;5.68;;;6.50;76.80;;;;;;4953098;29;20049;-77
2023/04/20 01:06:13;;;;;;;21.40;5.53;;;6.50;76.90;;;;;;4953197;29;20166;-77
2023/04/20 01:08:47;;;;;;;16.00;5.43;;;6.60;77.10;;;;;;4949638;28;20680;-77
2023/04/20 01:11:15;;;;;;;28.15;6.28;;;6.60;77.20;;;;;;4953060;29;20047;-78
2023/04/20 01:13:43;;;;;;;17.00;5.35;;;6.70;76.50;;;;;;4935556;29;20051;-76
2023/04/20 01:16:11;;;;;;;24.52;5.25;;;6.70;77.30;;;;;;4936661;29;20070;-77
2023/04/20 01:18:45;;;;;;;20.90;5.72;;;6.80;76.90;;;;;;4941934;28;20125;-78
2023/04/20 01:21:16;;;;;;;20.30;5.68;;;6.80;76.90;;;;;;4925439;29;20074;-77
2023/04/20 01:23:46;;;;;;;28.70;5.57;;;6.80;76.20;;;;;;4936703;29;20492;-77
2023/04/20 01:26:19;;;;;;;26.77;5.75;;;6.80;75.00;;;;;;4936617;29;20055;-77
2023/04/20 01:28:47;;;;;;;19.23;5.45;;;6.90;74.70;;;;;;4935493;29;20051;-77
2023/04/20 01:31:16;;;;;;;21.88;5.32;;;6.90;74.50;;;;;;4934337;29;20109;-78
2023/04/20 01:33:44;;;;;;;16.30;5.78;;;6.90;73.90;;;;;;4935425;29;20043;-77
2023/04/20 01:36:12;;;;;;;26.52;6.00;;;6.90;75.40;;;;;;4942524;29;20137;-78
2023/04/20 01:38:40;;;;;;;20.55;5.07;;;6.90;76.50;;;;;;4953742;29;20393;-77
2023/04/20 01:41:11;;;;;;;23.08;5.97;;;6.90;77.30;;;;;;4935165;29;20135;-77
2023/04/20 01:43:39;;;;;;;25.55;6.95;;;6.90;76.80;;;;;;4919135;29;20141;-77
2023/04/20 01:46:07;;;;;;;23.67;6.10;;;7.00;76.10;;;;;;4934701;29;20051;-77
2023/04/20 01:48:35;;;;;;;26.35;6.40;;;7.00;75.20;;;;;;4935835;29;20101;-77
2023/04/20 01:51:03;;;;;;;12.75;5.75;;;7.10;75.00;;;;;;4952027;29;20061;-77
2023/04/20 01:53:30;;;;;;;21.50;5.72;;;7.10;74.80;;;;;;4953208;28;20055;-77
2023/04/20 01:55:58;;;;;;;19.90;5.97;;;7.20;75.20;;;;;;4951134;29;20055;-77
2023/04/20 01:58:27;;;;;;;19.73;5.80;;;7.30;75.30;;;;;;4935399;29;20063;-77
2023/04/20 02:00:55;;;;;;;23.98;5.20;;;7.30;74.00;;;;;;4934566;29;20062;-76
2023/04/20 02:03:23;;;;;;;17.27;5.47;;;7.40;72.20;;;;;;4934861;29;20054;-77
2023/04/20 02:05:50;;;;;;;22.20;4.70;;;7.50;73.00;;;;;;4932301;29;20150;-77
2023/04/20 02:08:18;;;;;;;13.20;5.68;;;7.60;72.70;;;;;;4951578;28;20450;-77
2023/04/20 02:10:46;;;;;;;20.05;4.72;;;7.60;72.10;;;;;;4934688;29;20051;-77
2023/04/20 02:13:13;;;;;;;15.93;4.75;;;7.70;69.40;;;;;;4952654;29;20059;-78
2023/04/20 02:15:43;;;;;;;15.15;5.20;;;7.70;67.70;;;;;;4950026;29;20146;-78
2023/04/20 02:18:15;;;;;;;12.88;4.53;;;7.80;67.10;;;;;;4947340;29;20043;-77
2023/04/20 02:20:43;;;;;;;25.08;6.43;;;7.80;66.60;;;;;;4935135;29;20228;-77
2023/04/20 02:23:11;;;;;;;12.73;4.72;;;7.80;65.70;;;;;;4935485;29;20253;-77
2023/04/20 02:25:38;;;;;;;17.50;5.30;;;7.90;65.10;;;;;;4950189;28;20059;-77
2023/04/20 02:28:06;;;;;;;15.32;4.57;;;7.90;65.10;;;;;;4933530;29;20051;-77
2023/04/20 02:30:33;;;;;;;24.40;6.00;;;8.00;64.90;;;;;;4953054;28;20054;-78
2023/04/20 02:33:02;;;;;;;28.05;6.03;;;8.00;65.70;;;;;;4939348;29;20063;-78
2023/04/20 02:35:30;;;;;;;17.45;4.80;;;8.00;66.00;;;;;;4941097;29;20149;-77
2023/04/20 02:37:57;;;;;;;20.50;5.90;;;8.00;65.70;;;;;;4946802;29;20055;-77
2023/04/20 02:40:25;;;;;;;14.35;4.90;;;8.00;65.10;;;;;;4925896;29;20047;-78
2023/04/20 02:42:53;;;;;;;20.70;5.10;;;8.10;64.90;;;;;;4923868;29;20519;-78
2023/04/20 02:45:20;;;;;;;22.63;6.07;;;8.10;65.00;;;;;;4942012;28;20055;-78
2023/04/20 02:47:48;;;;;;;21.38;6.57;;;8.10;65.00;;;;;;4956111;28;20078;-78
2023/04/20 02:50:17;;;;;;;18.98;6.05;;;8.10;65.10;;;;;;4957237;29;20049;-77
2023/04/20 02:53:08;;;;;;;14.90;4.80;;;8.20;65.80;;;;;;4933146;29;20738;-77
2023/04/20 02:55:37;;;;;;;28.02;6.07;;;8.20;66.90;;;;;;4957009;28;20051;-78
2023/04/20 02:58:17;;;;;;;19.25;5.85;;;8.10;65.60;;;;;;4941591;29;20490;-79
2023/04/20 03:01:18;;;;;;;21.08;5.70;;;8.20;65.60;;;;;;4918997;29;20054;-78
2023/04/20 03:03:48;;;;;;;18.30;6.82;;;8.10;66.00;;;;;;4940584;29;20109;-78
2023/04/20 03:06:17;;;;;;;23.63;5.80;;;8.20;65.90;;;;;;4957525;29;20413;-78
2023/04/20 03:08:53;;;;;;;15.23;6.07;;;8.20;66.00;;;;;;4924086;29;20055;-77
2023/04/20 03:11:39;;;;;;;118.25;11.13;;;8.20;66.60;;;;;;4940954;29;20385;-78
2023/04/20 03:14:06;;;;;;;116.28;12.50;;;8.20;66.60;;;;;;4940563;29;20468;-79
2023/04/20 03:16:35;;;;;;;46.40;7.38;;;8.30;66.90;;;;;;4940000;29;20479;-78
2023/04/20 03:19:03;;;;;;;43.53;7.57;;;8.30;66.20;;;;;;4940879;29;20110;-78
2023/04/20 03:21:32;;;;;;;32.15;6.57;;;8.30;65.70;;;;;;4955780;28;20059;-78
2023/04/20 03:24:00;;;;;;;50.65;8.52;;;8.40;66.00;;;;;;4941631;29;20054;-78
2023/04/20 03:26:28;;;;;;;17.55;6.20;;;8.40;66.20;;;;;;4923817;29;20043;-77
2023/04/20 03:29:11;;;;;;;45.78;8.98;;;8.50;66.30;;;;;;4940742;29;20059;-77
2023/04/20 03:31:38;;;;;;;23.27;6.55;;;8.50;66.50;;;;;;4939226;28;20431;-77
2023/04/20 03:34:06;;;;;;;18.52;7.38;;;8.50;66.60;;;;;;4924387;29;20058;-77
2023/04/20 03:36:36;;;;;;;22.27;7.18;;;8.50;66.60;;;;;;4939781;29;20129;-78
2023/04/20 03:39:04;;;;;;;29.88;7.65;;;8.60;66.60;;;;;;4940379;29;20114;-78
2023/04/20 03:41:33;;;;;;;341.50;29.00;;;8.60;66.20;;;;;;4924401;29;20050;-78
2023/04/20 03:44:00;;;;;;;69.35;9.60;;;8.60;66.30;;;;;;4936769;29;20062;-78
2023/04/20 03:46:28;;;;;;;30.67;8.23;;;8.70;66.60;;;;;;4952953;29;20532;-78
2023/04/20 03:48:56;;;;;;;23.23;7.63;;;8.70;66.80;;;;;;4955241;29;20113;-78
2023/04/20 03:51:24;;;;;;;21.80;7.15;;;8.80;67.00;;;;;;4936669;29;20547;-78
2023/04/20 03:53:53;;;;;;;22.67;7.38;;;8.80;67.10;;;;;;4954924;29;20520;-78
2023/04/20 03:56:20;;;;;;;27.08;6.70;;;8.80;66.50;;;;;;4937031;29;20061;-78
2023/04/20 03:58:49;;;;;;;35.33;7.78;;;8.90;66.20;;;;;;4953059;28;20047;-79
2023/04/20 04:01:20;;;;;;;25.67;7.43;;;8.90;66.10;;;;;;4937219;29;20043;-78
2023/04/20 04:03:49;;;;;;;23.65;7.53;;;9.00;65.70;;;;;;4949328;29;20054;-78
2023/04/20 04:06:18;;;;;;;32.15;9.00;;;9.00;65.60;;;;;;4938363;28;20133;-79
2023/04/20 04:08:45;;;;;;;13.15;5.60;;;9.10;65.50;;;;;;4930989;29;20606;-78
2023/04/20 04:11:15;;;;;;;26.05;7.15;;;9.10;64.50;;;;;;4949260;29;20415;-79
2023/04/20 04:13:42;;;;;;;16.27;6.13;;;9.10;66.40;;;;;;4936309;28;20137;-79
2023/04/20 04:16:10;;;;;;;19.35;6.40;;;9.20;64.20;;;;;;4948373;28;20425;-79
2023/04/20 04:18:43;;;;;;;17.10;5.30;;;9.10;64.00;;;;;;4920073;29;20053;-80
2023/04/20 04:21:11;;;;;;;18.88;6.13;;;9.10;64.00;;;;;;4934520;29;20190;-79
2023/04/20 04:23:42;;;;;;;20.15;6.07;;;9.10;63.80;;;;;;4944815;29;20067;-79
2023/04/20 04:26:40;;;;;;;18.65;5.47;;;9.10;64.40;;;;;;4940403;28;20056;-78
2023/04/20 04:29:09;;;;;;;19.17;5.40;;;9.00;64.10;;;;;;4937485;29;20055;-79
2023/04/20 04:31:37;;;;;;;13.95;5.75;;;8.90;64.00;;;;;;4936452;29;20047;-79
2023/04/20 04:34:12;;;;;;;23.88;5.80;;;8.90;64.80;;;;;;4936100;29;20508;-79
2023/04/20 04:36:45;;;;;;;24.95;5.55;;;8.90;64.60;;;;;;4947563;29;20100;-80
2023/04/20 04:39:16;;;;;;;23.35;5.70;;;8.90;65.20;;;;;;4916651;29;20052;-79
2023/04/20 04:41:54;;;;;;;24.50;5.57;;;8.80;65.50;;;;;;4929532;29;20060;-80
2023/04/20 04:44:36;;;;;;;19.80;6.03;;;8.90;65.50;;;;;;4942216;29;20505;-79
2023/04/20 04:47:04;;;;;;;25.40;6.30;;;8.90;65.10;;;;;;4910247;29;20043;-81
2023/04/20 04:49:34;;;;;;;27.83;5.72;;;8.90;65.20;;;;;;4918360;29;20075;-80
2023/04/20 04:52:05;;;;;;;20.17;6.10;;;9.00;65.30;;;;;;4949773;29;20054;-79
2023/04/20 04:54:33;;;;;;;31.58;7.38;;;9.00;65.40;;;;;;4943150;28;20056;-78
2023/04/20 04:57:03;;;;;;;20.00;6.82;;;9.00;65.20;;;;;;4952569;29;20051;-79
2023/04/20 04:59:31;;;;;;;25.33;6.72;;;9.00;65.80;;;;;;4937718;29;20167;-79
2023/04/20 05:01:58;;;;;;;28.45;6.53;;;9.00;64.90;;;;;;4947668;28;20083;-80
2023/04/20 05:04:26;;;;;;;18.25;5.55;;;9.00;64.50;;;;;;4950200;29;20235;-78
2023/04/20 05:06:53;;;;;;;21.45;6.55;;;9.10;64.80;;;;;;4952808;28;20146;-78
2023/04/20 05:09:21;;;;;;;20.45;5.68;;;9.20;65.50;;;;;;4946135;29;20047;-80
2023/04/20 05:11:49;;;;;;;23.52;6.40;;;9.20;64.80;;;;;;4934108;28;20047;-82
2023/04/20 05:14:17;;;;;;;21.02;5.60;;;9.30;64.50;;;;;;4918738;29;20091;-81
2023/04/20 05:16:45;;;;;;;37.70;6.90;;;9.30;64.90;;;;;;4949560;28;20054;-81
2023/04/20 05:19:13;;;;;;;32.42;7.07;;;9.40;64.00;;;;;;4930425;29;20127;-77
2023/04/20 05:21:40;;;;;;;23.70;5.95;;;9.40;63.70;;;;;;4931278;29;20598;-78
2023/04/20 05:24:08;;;;;;;19.23;5.60;;;9.50;63.40;;;;;;4946555;29;20138;-78
2023/04/20 05:26:35;;;;;;;17.60;5.80;;;9.60;63.40;;;;;;4949014;29;20142;-77
2023/04/20 05:29:03;;;;;;;18.90;5.75;;;9.90;62.40;;;;;;4932442;29;20437;-77
2023/04/20 05:31:33;;;;;;;41.25;6.85;;;10.50;61.70;;;;;;4949976;29;20638;-78
2023/04/20 05:34:02;;;;;;;34.15;6.63;;;11.10;60.80;;;;;;4952072;29;20110;-77
2023/04/20 05:36:32;;;;;;;21.35;5.60;;;11.80;59.40;;;;;;4941800;29;20051;-77
2023/04/20 05:39:00;;;;;;;28.20;5.80;;;12.40;58.20;;;;;;4945585;29;20064;-76
2023/04/20 05:41:27;;;;;;;36.30;6.45;;;13.00;57.20;;;;;;4942123;29;20156;-76
2023/04/20 05:43:55;;;;;;;24.70;6.05;;;13.60;55.90;;;;;;4939857;29;20059;-79
2023/04/20 05:46:23;;;;;;;23.20;5.88;;;13.90;55.00;;;;;;4924808;29;20075;-77
2023/04/20 05:48:52;;;;;;;26.52;5.93;;;13.90;55.00;;;;;;4934197;29;20055;-76
2023/04/20 05:51:20;;;;;;;26.02;5.93;;;13.70;55.10;;;;;;4916096;29;20051;-76
2023/04/20 05:53:48;;;;;;;28.98;6.03;;;13.70;55.10;;;;;;4916877;29;20146;-77
2023/04/20 05:56:17;;;;;;;23.83;5.60;;;13.60;55.20;;;;;;4933727;29;20481;-77
2023/04/20 05:58:44;;;;;;;25.42;5.90;;;13.70;55.00;;;;;;4934906;29;21202;-77
2023/04/20 06:01:12;;;;;;;14.32;4.13;;;13.80;54.70;;;;;;4948444;29;20133;-81
2023/04/20 06:03:39;;;;;;;16.63;4.10;;;13.90;54.30;;;;;;4953560;29;20492;-81
2023/04/20 06:06:09;;;;;;;24.48;5.82;;;13.90;54.20;;;;;;4951558;28;20055;-80
2023/04/20 06:08:36;;;;;;;22.83;3.42;;;14.00;54.30;;;;;;4936152;29;20114;-81
2023/04/20 06:11:04;;;;;;;14.10;3.67;;;14.20;54.20;;;;;;4952881;29;20563;-81
2023/04/20 06:13:32;;;;;;;7.68;3.08;;;14.30;53.40;;;;;;4951550;29;20059;-80
2023/04/20 06:15:59;;;;;;;13.73;3.00;;;14.50;53.20;;;;;;4953016;29;20042;-80
2023/04/20 06:18:27;;;;;;;15.25;3.80;;;14.80;53.20;;;;;;4916648;29;20055;-81
2023/04/20 06:20:54;;;;;;;9.68;3.15;;;15.40;52.40;;;;;;4939927;29;20048;-83
2023/04/20 06:23:23;;;;;;;18.35;3.45;;;15.90;51.20;;;;;;4935266;29;20051;-81
2023/04/20 06:25:51;;;;;;;5.55;2.53;;;16.50;50.80;;;;;;4952333;29;20313;-80
2023/04/20 06:28:18;;;;;;;7.78;2.10;;;17.00;49.70;;;;;;4934819;29;20047;-76
2023/04/20 06:30:46;;;;;;;12.50;2.30;;;17.50;48.80;;;;;;4945760;29;20516;-79
2023/04/20 06:33:16;;;;;;;7.30;2.13;;;18.00;48.00;;;;;;4932436;29;20712;-76
2023/04/20 06:35:43;;;;;;;12.35;2.00;;;18.40;47.10;;;;;;4948131;29;20063;-76
2023/04/20 06:38:11;;;;;;;6.60;1.83;;;18.70;46.50;;;;;;4951095;29;20047;-76
2023/04/20 06:40:39;;;;;;;8.13;2.13;;;19.10;46.10;;;;;;4950387;29;20055;-77
2023/04/20 06:43:07;;;;;;;11.20;2.13;;;19.40;45.60;;;;;;4951539;29;20138;-76
2023/04/20 06:45:34;;;;;;;10.30;2.10;;;19.70;45.10;;;;;;4931204;29;20047;-81
2023/04/20 06:48:02;;;;;;;13.20;1.70;;;19.70;44.70;;;;;;4951422;29;20134;-82
2023/04/20 06:50:29;;;;;;;10.60;1.73;;;19.40;45.10;;;;;;4949312;29;20047;-81
2023/04/20 06:52:57;;;;;;;7.75;1.90;;;19.50;44.90;;;;;;4951253;29;20051;-81
2023/04/20 06:55:24;;;;;;;6.82;2.10;;;19.80;44.40;;;;;;4933792;29;20127;-82
2023/04/20 06:57:54;;;;;;;6.57;1.30;;;19.70;44.40;;;;;;4951473;29;20047;-82
2023/04/20 07:00:22;;;;;;;3.63;1.52;;;19.80;44.40;;;;;;4950764;29;20059;-82
2023/04/20 07:02:51;;;;;;;7.47;1.42;;;20.20;44.10;;;;;;4950862;29;20047;-81
2023/04/20 07:05:19;;;;;;;5.25;1.35;;;20.70;43.60;;;;;;4923821;29;20078;-81
2023/04/20 07:07:47;;;;;;;6.32;1.60;;;21.10;42.90;;;;;;4934769;29;20047;-83
2023/04/20 07:10:16;;;;;;;3.67;1.40;;;21.10;42.50;;;;;;4933229;28;20048;-81
2023/04/20 07:12:44;;;;;;;9.07;2.05;;;21.00;42.60;;;;;;4959788;28;20055;-82
2023/04/20 07:15:13;;;;;;;8.57;2.10;;;20.90;43.00;;;;;;4954216;28;20105;-82
2023/04/20 07:17:41;;;;;;;7.15;2.13;;;21.00;42.70;;;;;;4958861;28;20056;-82
2023/04/20 07:20:10;;;;;;;8.23;2.25;;;21.10;42.50;;;;;;4959109;28;20531;-82
2023/04/20 07:22:39;;;;;;;4.45;2.47;;;21.10;42.50;;;;;;4938773;29;20500;-81
2023/04/20 07:25:09;;;;;;;9.73;2.50;;;21.10;42.50;;;;;;4954872;29;20059;-81
2023/04/20 07:27:39;;;;;;;11.95;3.25;;;21.20;42.50;;;;;;4960821;28;20051;-82
2023/04/20 07:30:09;;;;;;;10.10;2.80;;;21.20;42.40;;;;;;4968644;28;20054;-78
2023/04/20 07:32:40;;;;;;;18.10;3.35;;;21.20;42.80;;;;;;4942577;28;20145;-77
2023/04/20 07:35:09;;;;;;;11.75;2.60;;;21.30;42.40;;;;;;4944728;29;20051;-78
2023/04/20 07:37:37;;;;;;;7.93;3.05;;;21.10;42.90;;;;;;4936447;29;20119;-82
2023/04/20 07:40:05;;;;;;;6.45;2.72;;;20.80;42.90;;;;;;4919725;29;20066;-82
2023/04/20 07:42:35;;;;;;;8.48;2.65;;;21.00;43.20;;;;;;4957912;28;20527;-81
2023/04/20 07:45:04;;;;;;;14.43;2.55;;;21.20;43.40;;;;;;4955275;29;20118;-81
2023/04/20 07:47:34;;;;;;;11.55;2.97;;;21.90;43.10;;;;;;4954649;28;20068;-83
2023/04/20 07:50:04;;;;;;;13.95;2.60;;;23.00;41.60;;;;;;4974495;28;20047;-80
2023/04/20 07:52:34;;;;;;;14.60;3.13;;;23.20;40.40;;;;;;4935761;29;20472;-81
2023/04/20 07:55:07;;;;;;;7.22;2.42;;;22.90;40.70;;;;;;4946577;29;20102;-82
2023/04/20 07:57:36;;;;;;;8.40;2.28;;;22.30;41.20;;;;;;4941350;29;20059;-81
2023/04/20 08:00:08;;;;;;;15.00;2.20;;;21.40;42.00;;;;;;4953550;29;20047;-81
2023/04/20 08:02:42;;;;;;;17.77;3.30;;;20.50;43.00;;;;;;4959478;28;20044;-80
2023/04/20 08:05:11;;;;;;;15.70;2.40;;;19.90;44.00;;;;;;4964518;28;20217;-82
2023/04/20 08:07:38;;;;;;;10.70;2.20;;;19.50;44.60;;;;;;4952097;29;20216;-80
2023/04/20 08:10:08;;;;;;;19.13;3.15;;;19.40;45.20;;;;;;4937587;28;20608;-81
2023/04/20 08:12:36;;;;;;;7.32;3.10;;;19.70;44.80;;;;;;4935991;29;20583;-76
2023/04/20 08:15:05;;;;;;;17.10;3.03;;;20.50;43.90;;;;;;4932618;29;20066;-76
2023/04/20 08:17:34;;;;;;;12.38;2.97;;;21.40;44.30;;;;;;4952888;29;20126;-76
2023/04/20 08:20:04;;;;;;;11.23;2.83;;;22.40;42.20;;;;;;4953723;28;20069;-75
2023/04/20 08:22:36;;;;;;;10.02;3.22;;;23.80;40.40;;;;;;4948749;29;20152;-77
2023/04/20 08:25:05;;;;;;;8.82;2.78;;;24.00;39.40;;;;;;4960082;28;20062;-77
2023/04/20 08:27:35;;;;;;;11.43;3.40;;;23.60;40.60;;;;;;4950227;28;20042;-76
2023/04/20 08:30:04;;;;;;;13.75;2.78;;;23.90;40.00;;;;;;4960961;28;20059;-78
2023/04/20 08:32:36;;;;;;;9.93;2.72;;;24.00;39.90;;;;;;4947842;29;20055;-81
2023/04/20 08:35:07;;;;;;;9.38;2.80;;;24.50;39.50;;;;;;4941911;28;20129;-79
2023/04/20 08:37:37;;;;;;;9.50;2.50;;;25.00;38.90;;;;;;4974419;28;20055;-82
2023/04/20 08:40:07;;;;;;;8.48;2.97;;;25.40;38.60;;;;;;4973112;28;20050;-85
2023/04/20 08:42:36;;;;;;;10.30;3.47;;;25.60;38.10;;;;;;4935583;29;20105;-84
2023/04/20 08:45:04;;;;;;;8.65;3.65;;;25.10;37.90;;;;;;4947456;28;20051;-83
2023/04/20 08:47:38;;;;;;;8.63;3.50;;;24.00;38.70;;;;;;4944255;29;20052;-83
2023/04/20 08:50:09;;;;;;;11.13;3.17;;;23.20;39.60;;;;;;4948479;29;20325;-81
2023/04/20 08:52:38;;;;;;;12.18;2.63;;;23.80;40.00;;;;;;4947398;28;20147;-83
2023/04/20 08:55:08;;;;;;;7.53;2.63;;;24.40;39.10;;;;;;4952071;29;20102;-83
2023/04/20 08:57:36;;;;;;;7.95;2.55;;;24.30;38.40;;;;;;4951799;28;20047;-84
2023/04/20 09:00:09;;;;;;;8.25;2.40;;;24.30;38.40;;;;;;4952170;29;20154;-83
2023/04/20 09:02:36;;;;;;;11.30;2.22;;;24.00;38.40;;;;;;4937391;28;20046;-83
2023/04/20 09:05:06;;;;;;;8.10;1.98;;;23.20;39.50;;;;;;4958065;28;20061;-83
2023/04/20 09:07:34;;;;;;;3.33;2.10;;;22.90;40.00;;;;;;4939314;29;20107;-84
2023/04/20 09:10:03;;;;;;;10.45;2.28;;;23.00;39.80;;;;;;4957227;28;20134;-82
2023/04/20 09:12:42;;;;;;;10.40;2.55;;;23.20;39.70;;;;;;4944680;29;20054;-82
2023/04/20 09:15:23;;;;;;;10.75;1.65;;;23.60;39.80;;;;;;4935519;29;20059;-84
2023/04/20 09:17:51;;;;;;;4.60;1.65;;;23.90;39.20;;;;;;4946973;29;20056;-84
2023/04/20 09:20:29;;;;;;;8.40;1.52;;;24.90;38.80;;;;;;4940964;29;20061;-83
2023/04/20 09:22:56;;;;;;;7.82;1.90;;;25.70;37.70;;;;;;4952456;29;20614;-83
2023/04/20 09:25:26;;;;;;;3.25;1.90;;;26.30;36.60;;;;;;4957511;28;20059;-84
2023/04/20 09:27:58;;;;;;;5.00;1.83;;;26.30;36.70;;;;;;4947305;28;20047;-82
2023/04/20 09:30:37;;;;;;;;;;;26.70;36.50;;;;;;4948972;28;20063;-84
2023/04/20 09:33:06;;;;;;;9.07;1.60;;;26.20;36.40;;;;;;4949917;29;19933;-86
2023/04/20 09:35:35;;;;;;;7.28;1.77;;;26.40;36.40;;;;;;4951679;29;20054;-83
2023/04/20 09:38:02;;;;;;;5.85;1.77;;;26.90;36.50;;;;;;4949896;28;20051;-82
2023/04/20 09:40:33;;;;;;;12.90;1.70;;;27.10;36.10;;;;;;4946153;28;20055;-79
2023/04/20 09:43:09;;;;;;;8.98;1.70;;;26.70;35.90;;;;;;4940163;28;20082;-82
2023/04/20 09:45:39;;;;;;;7.47;1.35;;;26.70;36.40;;;;;;4944370;29;20047;-82
2023/04/20 09:48:08;;;;;;;6.60;1.23;;;27.20;35.90;;;;;;4951710;28;20051;-81
2023/04/20 09:50:38;;;;;;;26.83;2.10;;;27.70;35.30;;;;;;4947994;28;20047;-83
2023/04/20 09:53:06;;;;;;;7.80;1.33;;;28.00;35.20;;;;;;4927900;29;20412;-83
2023/04/20 09:55:34;;;;;;;10.68;1.40;;;27.50;34.80;;;;;;4948556;29;20047;-80
2023/04/20 09:58:04;;;;;;;10.48;1.30;;;27.10;35.60;;;;;;4944936;28;20056;-83
2023/04/20 10:00:31;;;;;;;6.97;0.98;;;27.30;35.20;;;;;;4950787;28;20055;-81
2023/04/20 10:02:59;;;;;;;7.80;1.30;;;26.40;35.60;;;;;;4925338;29;20726;-82
2023/04/20 10:05:35;;;;;;;4.20;0.80;;;25.30;36.60;;;;;;4931571;29;20047;-78
2023/04/20 10:08:03;;;;;;;5.13;0.95;;;24.30;37.30;;;;;;4919558;29;20078;-78
2023/04/20 10:10:31;;;;;;;6.47;1.33;;;23.30;38.60;;;;;;4930275;28;20139;-79
2023/04/20 10:13:01;;;;;;;5.63;1.15;;;22.50;40.60;;;;;;4959283;28;20055;-79
2023/04/20 10:15:38;;;;;;;8.45;0.90;;;22.90;40.20;;;;;;4931804;29;20079;-79
2023/04/20 10:18:21;;;;;;;7.47;1.20;;;22.80;40.10;;;;;;4932932;29;20107;-82
2023/04/20 10:20:49;;;;;;;9.35;1.00;;;23.60;40.00;;;;;;4952703;29;20102;-80
2023/04/20 10:23:18;;;;;;;4.30;1.00;;;25.00;38.80;;;;;;4929797;29;20067;-83
2023/04/20 10:25:57;;;;;;;6.15;1.00;;;25.90;37.20;;;;;;4941991;29;20555;-82
2023/04/20 10:28:26;;;;;;;16.90;2.33;;;25.70;37.20;;;;;;4955600;28;20054;-82
2023/04/20 10:30:54;;;;;;;4.80;1.13;;;24.70;36.80;;;;;;4941810;28;20138;-83
2023/04/20 10:33:21;;;;;;;7.50;1.20;;;23.60;37.10;;;;;;4971510;28;20046;-82
2023/04/20 10:35:53;;;;;;;6.43;1.00;;;22.80;38.40;;;;;;4965473;28;20062;-84
2023/04/20 10:38:33;;;;;;;7.32;1.48;;;22.40;38.70;;;;;;4950654;28;20055;-84
2023/04/20 10:41:07;;;;;;;11.90;1.10;;;22.30;38.90;;;;;;4949606;29;20051;-83
2023/04/20 10:43:37;;;;;;;12.73;1.33;;;22.10;39.30;;;;;;4951433;29;20432;-84
2023/04/20 10:46:14;;;;;;;7.30;1.10;;;22.10;39.90;;;;;;4917195;29;20055;-83
2023/04/20 10:48:53;;;;;;;3.00;1.00;;;23.30;38.90;;;;;;4922527;29;20051;-83
2023/04/20 10:51:25;;;;;;;9.13;1.38;;;24.60;37.20;;;;;;4952184;28;20055;-83
2023/04/20 10:54:03;;;;;;;8.80;1.42;;;25.20;36.20;;;;;;4948974;29;20452;-81
2023/04/20 10:56:41;;;;;;;2.78;0.80;;;24.80;36.50;;;;;;4951128;29;20050;-81
2023/04/20 10:59:27;;;;;;;4.80;1.40;;;24.20;36.70;;;;;;4940251;28;20086;-81
2023/04/20 11:02:06;;;;;;;;;;;;;;;;;;;;;
2023/04/20 11:04:46;;;;;;;4.38;1.05;;;22.50;39.60;;;;;;4936170;28;20121;-82
2023/04/20 11:07:14;;;;;;;6.78;1.17;;;21.90;39.50;;;;;;4954595;28;20125;-81
2023/04/20 11:09:42;;;;;;;3.40;1.25;;;21.20;40.50;;;;;;4946142;28;20039;-81
2023/04/20 11:12:27;;;;;;;10.73;1.20;;;20.80;41.00;;;;;;4947948;29;20670;-90
2023/04/20 11:14:59;;;;;;;57.25;3.25;;;20.50;41.60;;;;;;4946034;29;20143;-83
2023/04/20 11:17:33;;;;;;;7.10;1.40;;;20.20;42.70;;;;;;4950581;29;20043;-82
2023/04/20 11:20:09;;;;;;;15.07;1.10;;;19.80;42.30;;;;;;4949871;29;20070;-85
2023/04/20 11:22:38;;;;;;;11.57;1.55;;;19.40;42.50;;;;;;4947919;29;20452;-82
2023/04/20 11:25:08;;;;;;;13.75;1.30;;;19.00;42.90;;;;;;4951875;29;20043;-84
2023/04/20 11:27:36;;;;;;;4.50;1.08;;;18.70;44.20;;;;;;4945057;29;20047;-82
2023/04/20 11:30:10;;;;;;;14.20;1.10;;;18.50;44.30;;;;;;4946158;29;20046;-80
2023/04/20 11:32:39;;;;;;;11.23;1.48;;;18.30;44.40;;;;;;4946265;29;20052;-80
2023/04/20 11:35:13;;;;;;;3.13;1.00;;;18.60;44.60;;;;;;4940226;29;20043;-83
2023/04/20 11:37:47;;;;;;;16.67;1.58;;;19.80;43.40;;;;;;4946842;29;20050;-84
2023/04/20 11:40:15;;;;;;;7.78;1.20;;;20.20;42.20;;;;;;4929317;29;20047;-84
2023/04/20 11:42:45;;;;;;;6.93;1.27;;;19.80;42.80;;;;;;4952809;28;20130;-82
2023/04/20 11:45:14;;;;;;;4.72;1.00;;;19.10;43.90;;;;;;4945774;28;21267;-83
2023/04/20 11:47:45;;;;;;;10.68;1.27;;;18.50;44.50;;;;;;4934287;28;20075;-79
2023/04/20 11:50:16;;;;;;;12.93;1.63;;;18.10;45.20;;;;;;4928563;29;20067;-81
2023/04/20 11:52:43;;;;;;;5.45;1.45;;;17.90;45.80;;;;;;4946161;29;20111;-83
2023/04/20 11:55:17;;;;;;;6.45;1.50;;;17.70;46.10;;;;;;4942830;29;20494;-83
2023/04/20 11:57:44;;;;;;;17.15;1.83;;;17.40;46.50;;;;;;4943693;29;20548;-80
2023/04/20 12:00:16;;;;;;;4.63;1.15;;;17.10;46.90;;;;;;4926959;29;20063;-83
2023/04/20 12:02:44;;;;;;;8.37;1.67;;;16.80;47.80;;;;;;4928331;28;20048;-85
2023/04/20 12:05:12;;;;;;;5.25;1.30;;;16.50;48.00;;;;;;4944658;29;20456;-82
2023/04/20 12:07:40;;;;;;;10.30;1.98;;;16.30;48.40;;;;;;4941739;29;20411;-87
2023/04/20 12:10:11;;;;;;;23.10;2.35;;;16.00;49.20;;;;;;4940972;28;20047;-86
2023/04/20 12:12:40;;;;;;;8.02;1.73;;;15.80;50.00;;;;;;4912003;29;20047;-81
2023/04/20 12:15:10;;;;;;;8.80;1.55;;;15.70;50.70;;;;;;4948029;28;20061;-88
2023/04/20 12:17:38;;;;;;;14.43;2.25;;;15.60;50.60;;;;;;4934258;28;20416;-83
2023/04/20 12:20:10;;;;;;;7.10;1.20;;;15.60;51.20;;;;;;4936031;29;20424;-87
2023/04/20 12:22:38;;;;;;;10.23;1.85;;;15.50;52.10;;;;;;4951950;28;20062;-86
2023/04/20 12:25:07;;;;;;;10.75;1.90;;;15.30;52.70;;;;;;4952535;28;20054;-87
2023/04/20 12:27:36;;;;;;;5.53;1.55;;;15.10;54.30;;;;;;4951654;28;20050;-95
2023/04/20 12:30:03;;;;;;;11.85;1.70;;;14.90;55.20;;;;;;4962497;28;20050;-84
2023/04/20 12:32:34;;;;;;;7.13;1.65;;;14.80;56.20;;;;;;4942150;29;20470;-85
2023/04/20 12:35:03;;;;;;;11.20;1.60;;;14.70;57.50;;;;;;4954414;28;20061;-86
2023/04/20 12:37:34;;;;;;;10.57;1.60;;;14.60;58.20;;;;;;4956245;28;20062;-87
2023/04/20 12:40:03;;;;;;;11.40;1.60;;;14.60;59.00;;;;;;4939182;29;20055;-86
2023/04/20 12:42:31;;;;;;;7.40;1.00;;;14.50;58.50;;;;;;4957907;28;20106;-85
2023/04/20 12:44:58;;;;;;;5.45;1.25;;;14.40;59.10;;;;;;4914813;28;20122;-86
2023/04/20 12:47:26;;;;;;;5.78;1.50;;;14.30;58.40;;;;;;4943278;28;20079;-85
2023/04/20 12:49:54;;;;;;;4.45;0.98;;;14.30;58.80;;;;;;4907966;29;20111;-87
2023/04/20 12:52:22;;;;;;;4.75;1.10;;;14.20;58.60;;;;;;4934542;28;20094;-85
2023/04/20 12:54:52;;;;;;;8.00;1.20;;;14.00;58.40;;;;;;4939692;28;20062;-88
2023/04/20 12:57:20;;;;;;;9.32;1.50;;;13.90;58.30;;;;;;4954515;28;20047;-86
2023/04/20 12:59:48;;;;;;;4.65;1.58;;;13.90;59.50;;;;;;4959833;28;20047;-89